Hlavní strana
METAR-TAF:

METAR-TAF

Letiště :

Voroněž, Rusko

zeměpisná šířka: 51-39N, zeměpisná délka: 039-15E, výška: 154 m

Aktuální stav počasí

Zpráva byla vytvořena před 56 minutami, v 01:30 UTC
Západní vítr 6 kt
Teplota 1°C
Vlhkost vzduchu 93%
Tlak 1019 hPa
Viditelnost 10 km a více
Zataženo ve výšce 2100 ft

METAR: UUOO 220130Z 28003MPS 9999 OVC021 01/M00 Q1019 R30/090070 NOSIG RMK QFE751

Čas: 05:26 (02:26 UTC)

Předpověď počasí

Zpráva byla vytvořena před 3 hodinami a 26 minutami, v 23:00 UTC
Předpověď platná od 22 v 00 UTC do 22 v 09 UTC
Západní vítr 6 kt
Viditelnost: 3100 m
Zataženo ve výšce 1100 ft
slabé sněžení, kouřmo

TAF: UUOO 212300Z 2200/2209 27003MPS 3100 -SN BR OVC011

Stav a předpovědi počasí z více než 4 000 letišť (zprávy METAR a TAF).

Červené a žluté tečky na mapě představují dostupné meteorologické stanice.

Když kurzor umístíte na tečku, zobrazí se název stanice.

Pak kliknutím zobrazíte stav a předpověď počasí.

Chcete-li změnit mapu, kliknutím na zelené tlačítko se znaménkem +mapu přiblížíte, kliknutím na zelené tlačítko se znaménkem – mapu oddálíte a kliknutím na zelené šipky přejdete na sousední mapy.


METAR-TAF: